Time,TemperatureF,DewpointF,PressureIn,WindDirection,WindDirectionDegrees,WindSpeedMPH,WindSpeedGustMPH,Humidity,HourlyPrecipIn,Conditions,Clouds,dailyrainin,SolarRadiationWatts/m^2,SoftwareType,DateUTC
2013-06-25 00:02:00,61.0,59.0,-100.00,SSW,192,2.0,3.0,93,0.00,,,0.08,0.000000,,2013-06-25 07:02:00,
2013-06-25 00:43:00,60.0,59.0,-100.00,NNE,27,2.0,4.0,95,0.00,,,0.08,0.000000,,2013-06-25 07:43:00,
2013-06-25 00:52:00,60.0,59.0,-100.00,NNE,27,2.0,4.0,95,0.00,,,0.08,0.000000,,2013-06-25 07:52:00,
2013-06-25 01:01:00,60.0,59.0,-100.00,NNE,27,2.0,4.0,95,0.00,,,0.08,0.000000,,2013-06-25 08:01:00,
2013-06-25 01:43:00,60.0,59.0,-100.00,South,182,2.0,4.0,96,0.00,,,-99.99,0.000000,,2013-06-25 08:43:00,
2013-06-25 01:53:00,60.0,59.0,-100.00,South,182,2.0,4.0,96,0.00,,,-99.99,0.000000,,2013-06-25 08:53:00,
2013-06-25 02:01:00,60.0,59.0,-100.00,South,182,2.0,4.0,96,0.00,,,-99.99,0.000000,,2013-06-25 09:01:00,
2013-06-25 02:43:00,60.0,59.0,-100.00,SSE,162,2.0,4.0,96,0.00,,,0.08,0.000000,,2013-06-25 09:43:00,
2013-06-25 02:53:00,60.0,59.0,-100.00,SSE,162,2.0,4.0,96,0.00,,,0.08,0.000000,,2013-06-25 09:53:00,
2013-06-25 03:01:00,60.0,59.0,-100.00,SSE,162,2.0,4.0,96,0.00,,,0.08,0.000000,,2013-06-25 10:01:00,
2013-06-25 03:33:00,59.0,58.0,-100.00,South,173,3.0,7.0,95,0.00,,,0.08,0.000000,,2013-06-25 10:33:00,
2013-06-25 03:43:00,59.0,58.0,-100.00,South,173,3.0,7.0,95,0.00,,,0.08,0.000000,,2013-06-25 10:43:00,
2013-06-25 03:52:00,59.0,58.0,-100.00,South,173,3.0,7.0,95,0.00,,,0.08,0.000000,,2013-06-25 10:52:00,
2013-06-25 04:01:00,59.0,58.0,-100.00,South,173,3.0,7.0,95,0.00,,,0.08,0.000000,,2013-06-25 11:01:00,
2013-06-25 04:34:00,59.0,58.0,-100.00,North,351,1.0,4.0,96,0.00,,,0.08,0.000000,,2013-06-25 11:34:00,
2013-06-25 04:43:00,59.0,58.0,-100.00,North,351,1.0,4.0,96,0.00,,,0.08,0.000000,,2013-06-25 11:43:00,
2013-06-25 04:52:00,59.0,58.0,-100.00,North,351,1.0,4.0,96,0.00,,,0.08,0.000000,,2013-06-25 11:52:00,
2013-06-25 05:01:00,59.0,58.0,-100.00,North,351,1.0,4.0,96,0.00,,,0.08,0.000000,,2013-06-25 12:01:00,
2013-06-25 05:43:00,58.0,57.0,-100.00,SSE,154,3.0,6.0,96,0.00,,,0.05,0.000000,,2013-06-25 12:43:00,
2013-06-25 05:55:00,58.0,57.0,-100.00,SSE,154,3.0,6.0,96,0.00,,,0.05,0.000000,,2013-06-25 12:55:00,
2013-06-25 06:01:00,58.0,57.0,-100.00,SSE,154,3.0,6.0,96,0.00,,,0.05,0.000000,,2013-06-25 13:01:00,
2013-06-25 06:42:00,58.0,57.0,-100.00,ENE,68,0.0,3.0,96,0.00,,,0.04,1.000000,,2013-06-25 13:42:00,
2013-06-25 06:53:00,58.0,57.0,-100.00,ENE,68,0.0,3.0,96,0.00,,,0.04,1.000000,,2013-06-25 13:53:00,
2013-06-25 07:01:00,58.0,57.0,-100.00,ENE,68,0.0,3.0,96,0.00,,,0.04,1.000000,,2013-06-25 14:01:00,
2013-06-25 07:43:00,59.0,58.0,-100.00,ESE,113,1.0,2.0,95,0.00,,,0.03,22.000000,,2013-06-25 14:43:00,
2013-06-25 07:53:00,59.0,58.0,-100.00,ESE,113,1.0,2.0,95,0.00,,,0.03,22.000000,,2013-06-25 14:53:00,
2013-06-25 08:01:00,59.0,58.0,-100.00,ESE,113,1.0,2.0,95,0.00,,,0.03,22.000000,,2013-06-25 15:01:00,
2013-06-25 08:44:00,62.0,58.0,-100.00,ENE,61,1.0,3.0,88,0.00,,,0.02,78.000000,,2013-06-25 15:44:00,
2013-06-25 08:53:00,62.0,58.0,-100.00,ENE,61,1.0,3.0,88,0.00,,,0.02,78.000000,,2013-06-25 15:53:00,
2013-06-25 09:03:00,62.0,58.0,-100.00,ENE,61,1.0,3.0,88,0.00,,,0.02,78.000000,,2013-06-25 16:03:00,
2013-06-25 10:01:00,66.0,59.0,-100.00,SSW,206,4.0,7.0,78,0.00,,,0.01,190.000000,,2013-06-25 17:01:00,
2013-06-25 11:34:00,70.0,59.0,-100.00,SE,128,5.0,9.0,68,-99.99,,,0.01,585.000000,,2013-06-25 18:34:00,
2013-06-25 11:44:00,70.0,59.0,-100.00,SE,128,5.0,9.0,68,-99.99,,,0.01,585.000000,,2013-06-25 18:44:00,
2013-06-25 11:53:00,70.0,59.0,-100.00,SE,128,5.0,9.0,68,-99.99,,,0.01,585.000000,,2013-06-25 18:53:00,
2013-06-25 12:01:00,70.0,59.0,-100.00,SE,128,5.0,9.0,68,-99.99,,,0.01,585.000000,,2013-06-25 19:01:00,
2013-06-25 13:33:00,71.0,59.0,-100.00,SSW,213,3.0,8.0,65,-99.99,,,0.00,536.000000,,2013-06-25 20:33:00,
2013-06-25 13:42:00,71.0,59.0,-100.00,SSW,213,3.0,8.0,65,-99.99,,,0.00,536.000000,,2013-06-25 20:42:00,
2013-06-25 13:52:00,71.0,59.0,-100.00,SSW,213,3.0,8.0,65,-99.99,,,0.00,536.000000,,2013-06-25 20:52:00,
2013-06-25 14:01:00,71.0,59.0,-100.00,SSW,213,3.0,8.0,65,-99.99,,,0.00,536.000000,,2013-06-25 21:01:00,
2013-06-25 14:43:00,69.0,58.0,-100.00,SSE,147,5.0,10.0,69,0.00,,,0.00,606.000000,,2013-06-25 21:43:00,
2013-06-25 14:53:00,69.0,58.0,-100.00,SSE,147,5.0,10.0,69,0.00,,,0.00,606.000000,,2013-06-25 21:53:00,
2013-06-25 15:01:00,69.0,58.0,-100.00,SSE,147,5.0,10.0,69,0.00,,,0.00,606.000000,,2013-06-25 22:01:00,
2013-06-25 15:34:00,71.0,58.0,-100.00,SSE,161,5.0,8.0,64,0.00,,,0.00,703.000000,,2013-06-25 22:34:00,
2013-06-25 15:42:00,71.0,58.0,-100.00,SSE,161,5.0,8.0,64,0.00,,,0.00,703.000000,,2013-06-25 22:42:00,
2013-06-25 15:52:00,71.0,58.0,-100.00,SSE,161,5.0,8.0,64,0.00,,,0.00,703.000000,,2013-06-25 22:52:00,
2013-06-25 16:01:00,71.0,58.0,-100.00,SSE,161,5.0,8.0,64,0.00,,,0.00,703.000000,,2013-06-25 23:01:00,
2013-06-25 16:34:00,73.0,62.0,-100.00,East,90,4.0,10.0,69,0.00,,,0.00,774.000000,,2013-06-25 23:34:00,
2013-06-25 16:44:00,73.0,62.0,-100.00,East,90,4.0,10.0,69,0.00,,,0.00,774.000000,,2013-06-25 23:44:00,
2013-06-25 16:52:00,73.0,62.0,-100.00,East,90,4.0,10.0,69,0.00,,,0.00,774.000000,,2013-06-25 23:52:00,
2013-06-25 17:01:00,73.0,62.0,-100.00,East,90,4.0,10.0,69,0.00,,,0.00,774.000000,,2013-06-26 00:01:00,
2013-06-25 18:33:00,70.0,62.0,-100.00,ESE,104,3.0,9.0,77,0.00,,,0.00,239.000000,,2013-06-26 01:33:00,
2013-06-25 18:43:00,70.0,62.0,-100.00,ESE,104,3.0,9.0,77,0.00,,,0.00,239.000000,,2013-06-26 01:43:00,
2013-06-25 18:53:00,70.0,62.0,-100.00,ESE,104,3.0,9.0,77,0.00,,,0.00,239.000000,,2013-06-26 01:53:00,
2013-06-25 19:01:00,70.0,62.0,-100.00,ESE,104,3.0,9.0,77,0.00,,,0.00,239.000000,,2013-06-26 02:01:00,
2013-06-25 19:34:00,69.0,62.0,-100.00,SE,143,2.0,6.0,78,0.00,,,0.00,127.000000,,2013-06-26 02:34:00,
2013-06-25 19:43:00,69.0,62.0,-100.00,SE,143,2.0,6.0,78,0.00,,,0.00,127.000000,,2013-06-26 02:43:00,
2013-06-25 19:53:00,69.0,62.0,-100.00,SE,143,2.0,6.0,78,0.00,,,0.00,127.000000,,2013-06-26 02:53:00,
2013-06-25 20:01:00,69.0,62.0,-100.00,SE,143,2.0,6.0,78,0.00,,,0.00,127.000000,,2013-06-26 03:01:00,
2013-06-25 20:33:00,67.0,61.0,-100.00,SW,236,1.0,5.0,81,0.00,,,0.00,28.000000,,2013-06-26 03:33:00,
2013-06-25 20:43:00,67.0,61.0,-100.00,SW,236,1.0,5.0,81,0.00,,,0.00,28.000000,,2013-06-26 03:43:00,
2013-06-25 20:52:00,67.0,61.0,-100.00,SW,236,1.0,5.0,81,0.00,,,0.00,28.000000,,2013-06-26 03:52:00,
2013-06-25 21:01:00,67.0,61.0,-100.00,SW,236,1.0,5.0,81,0.00,,,0.00,28.000000,,2013-06-26 04:01:00,
2013-06-25 21:33:00,64.0,61.0,-100.00,WSW,243,0.0,6.0,89,0.00,,,0.00,4.000000,,2013-06-26 04:33:00,
2013-06-25 21:43:00,64.0,61.0,-100.00,WSW,243,0.0,6.0,89,0.00,,,0.00,4.000000,,2013-06-26 04:43:00,
2013-06-25 21:53:00,64.0,61.0,-100.00,WSW,243,0.0,6.0,89,0.00,,,0.00,4.000000,,2013-06-26 04:53:00,
2013-06-25 22:02:00,64.0,61.0,-100.00,WSW,243,0.0,6.0,89,0.00,,,0.00,4.000000,,2013-06-26 05:02:00,
2013-06-25 22:34:00,62.0,60.0,-100.00,West,272,0.0,2.0,94,0.00,,,0.00,0.000000,,2013-06-26 05:34:00,
2013-06-25 22:43:00,62.0,60.0,-100.00,West,272,0.0,2.0,94,0.00,,,0.00,0.000000,,2013-06-26 05:43:00,
2013-06-25 22:52:00,62.0,60.0,-100.00,West,272,0.0,2.0,94,0.00,,,0.00,0.000000,,2013-06-26 05:52:00,
2013-06-25 23:01:00,62.0,60.0,-100.00,West,272,0.0,2.0,94,0.00,,,0.00,0.000000,,2013-06-26 06:01:00,
2013-06-25 23:34:00,59.0,58.0,-100.00,SW,224,0.0,3.0,96,0.00,,,0.00,0.000000,,2013-06-26 06:34:00,
2013-06-25 23:44:00,59.0,58.0,-100.00,SW,224,0.0,3.0,96,0.00,,,0.00,0.000000,,2013-06-26 06:44:00,
2013-06-25 23:53:00,59.0,58.0,-100.00,SW,224,0.0,3.0,96,0.00,,,0.00,0.000000,,2013-06-26 06:53:00,